METAR Data
IDs: Format: Raw Decoded Include TAF

Data at: 0705 UTC 07 Apr 2020

KDTW 070653Z 00000KT 7SM -RA SCT035 BKN055 OVC090 08/M04 A2997 RMK AO2 RAB45 SLP150 P0000 T00781039

KDTW 070520Z 0706/0812 14005KT P6SM OVC045
  FM070800 12005KT 4SM -SHRA BR OVC025
  FM071100 12005KT 2SM -SHRA BR OVC007
  FM071500 12005KT 6SM BR OVC007
  FM072000 16007KT 6SM BR OVC015